createdAt,value
2023-04-22T00:00:17.230Z,92.50
2023-04-22T00:02:44.640Z,92.60
2023-04-22T00:05:15.068Z,92.60
2023-04-22T00:07:43.558Z,92.70
2023-04-22T00:10:11.677Z,92.80
2023-04-22T00:12:38.839Z,92.90
2023-04-22T00:15:06.671Z,93.00
2023-04-22T00:17:33.867Z,93.10
2023-04-22T00:20:01.557Z,93.20
2023-04-22T00:22:28.549Z,93.30
2023-04-22T00:24:55.613Z,93.40
2023-04-22T00:27:22.584Z,93.50
2023-04-22T00:29:49.583Z,93.50
2023-04-22T00:32:17.455Z,93.50
2023-04-22T00:34:44.355Z,93.60
2023-04-22T00:37:11.485Z,93.70
2023-04-22T00:39:39.980Z,93.80
2023-04-22T00:42:07.912Z,93.80
2023-04-22T00:44:36.566Z,93.90
2023-04-22T00:47:05.668Z,94.00
2023-04-22T00:49:34.783Z,94.00
2023-04-22T00:52:02.107Z,94.00
2023-04-22T00:54:29.641Z,94.00
2023-04-22T00:56:57.917Z,94.00
2023-04-22T00:59:26.831Z,94.10
2023-04-22T01:01:54.315Z,94.20
2023-04-22T01:04:23.150Z,94.30
2023-04-22T01:06:53.057Z,94.30
2023-04-22T01:09:23.103Z,94.40
2023-04-22T01:11:50.266Z,94.40
2023-04-22T01:14:17.205Z,94.50
2023-04-22T01:16:45.207Z,94.50
2023-04-22T01:19:13.243Z,94.50
2023-04-22T01:21:40.920Z,94.50
2023-04-22T01:24:08.812Z,94.50
2023-04-22T01:26:37.238Z,94.40
2023-04-22T01:29:06.089Z,94.40
2023-04-22T01:31:33.590Z,94.30
2023-04-22T01:34:00.976Z,94.20
2023-04-22T01:36:28.093Z,94.20
2023-04-22T01:38:55.635Z,94.10
2023-04-22T01:41:22.645Z,94.00
2023-04-22T01:43:50.657Z,93.90
2023-04-22T01:46:18.184Z,93.90
2023-04-22T01:48:50.526Z,93.80
2023-04-22T01:51:18.310Z,93.80
2023-04-22T01:53:45.274Z,93.80
2023-04-22T01:56:12.310Z,93.70
2023-04-22T01:58:40.584Z,93.70
2023-04-22T02:01:10.481Z,93.90
2023-04-22T02:03:38.410Z,93.70
2023-04-22T02:06:05.908Z,93.60
2023-04-22T02:08:32.892Z,93.60
2023-04-22T02:11:00.961Z,93.60
2023-04-22T02:13:41.244Z,93.60
2023-04-22T02:16:09.378Z,93.60
2023-04-22T02:18:36.598Z,93.60
2023-04-22T02:21:03.802Z,93.60
2023-04-22T02:23:31.208Z,93.70
2023-04-22T02:25:58.178Z,93.80
2023-04-22T02:28:25.119Z,93.80
2023-04-22T02:30:52.068Z,93.90
2023-04-22T02:33:19.080Z,94.00
2023-04-22T02:35:46.467Z,94.10
2023-04-22T02:38:18.532Z,94.10
2023-04-22T02:40:45.445Z,94.20
2023-04-22T02:43:12.525Z,94.20
2023-04-22T02:45:40.926Z,94.20
2023-04-22T02:48:11.768Z,94.20
2023-04-22T02:50:39.770Z,94.30
2023-04-22T02:53:08.151Z,94.30
2023-04-22T02:55:35.387Z,94.50
2023-04-22T02:58:02.492Z,94.70
2023-04-22T03:00:29.622Z,94.80
2023-04-22T03:02:56.873Z,95.00
2023-04-22T03:05:28.987Z,95.10
2023-04-22T03:07:56.068Z,95.20
2023-04-22T03:10:23.081Z,95.20
2023-04-22T03:12:51.018Z,95.20
2023-04-22T03:15:21.283Z,95.20
2023-04-22T03:17:49.207Z,95.20
2023-04-22T03:20:17.079Z,95.10
2023-04-22T03:22:44.178Z,95.20
2023-04-22T03:25:13.525Z,95.20
2023-04-22T03:27:45.258Z,95.30
2023-04-22T03:30:12.430Z,95.20
2023-04-22T03:32:39.399Z,95.20
2023-04-22T03:35:16.538Z,95.20
2023-04-22T03:37:46.179Z,95.20
2023-04-22T03:40:17.735Z,95.20
2023-04-22T03:42:44.952Z,95.20
2023-04-22T03:45:12.084Z,95.20
2023-04-22T03:47:44.895Z,95.20
2023-04-22T03:50:21.080Z,95.20
2023-04-22T03:52:49.912Z,95.20
2023-04-22T03:55:20.787Z,95.20
2023-04-22T03:57:50.526Z,95.10
2023-04-22T04:00:17.683Z,95.10
2023-04-22T04:02:51.167Z,95.10
2023-04-22T04:05:21.968Z,95.00
2023-04-22T04:07:48.937Z,95.00
2023-04-22T04:10:16.027Z,95.00
2023-04-22T04:12:43.512Z,95.10
2023-04-22T04:15:11.983Z,95.00
2023-04-22T04:17:39.991Z,95.00
2023-04-22T04:20:07.436Z,95.00
2023-04-22T04:22:36.175Z,95.00
2023-04-22T04:25:06.838Z,94.90
2023-04-22T04:27:39.422Z,94.90
2023-04-22T04:30:07.617Z,95.00
2023-04-22T04:32:45.857Z,95.00
2023-04-22T04:35:15.333Z,94.90
2023-04-22T04:37:47.324Z,94.90
2023-04-22T04:40:15.443Z,94.90
2023-04-22T04:43:08.813Z,94.80
2023-04-22T04:45:50.664Z,94.70
2023-04-22T04:48:27.588Z,94.60
2023-04-22T04:51:04.489Z,94.50
2023-04-22T04:53:34.259Z,94.40
2023-04-22T04:56:01.836Z,94.40
2023-04-22T04:58:35.126Z,94.40
2023-04-22T05:01:20.804Z,94.40
2023-04-22T05:03:49.021Z,94.30
2023-04-22T05:06:18.186Z,94.30
2023-04-22T05:09:08.263Z,94.40
2023-04-22T05:11:36.601Z,94.50
2023-04-22T05:14:10.868Z,94.60
2023-04-22T05:16:41.447Z,94.70
2023-04-22T05:19:10.303Z,94.80
2023-04-22T05:21:40.066Z,94.90
2023-04-22T05:24:07.525Z,94.90
2023-04-22T05:26:34.720Z,94.80
2023-04-22T05:29:08.060Z,94.70
2023-04-22T05:31:35.105Z,94.30
2023-04-22T05:34:02.139Z,94.00
2023-04-22T05:36:31.615Z,93.50
2023-04-22T05:38:59.448Z,93.10
2023-04-22T05:41:27.259Z,92.70
2023-04-22T05:43:56.469Z,92.30
2023-04-22T05:46:24.393Z,91.90
2023-04-22T05:48:51.929Z,91.60
2023-04-22T05:51:37.784Z,91.30
2023-04-22T05:54:05.229Z,90.70
2023-04-22T05:56:32.486Z,90.30
2023-04-22T05:58:59.621Z,90.10
2023-04-22T06:01:27.186Z,89.50
2023-04-22T06:04:01.032Z,87.80
2023-04-22T06:06:30.745Z,86.10
2023-04-22T06:08:57.863Z,84.80
2023-04-22T06:11:24.826Z,83.40
2023-04-22T06:13:51.792Z,82.50
2023-04-22T06:16:19.499Z,82.10
2023-04-22T06:18:46.994Z,81.10
2023-04-22T06:21:14.876Z,80.50
2023-04-22T06:23:42.665Z,78.80
2023-04-22T06:26:09.792Z,77.00
2023-04-22T06:28:37.724Z,76.60
2023-04-22T06:31:10.367Z,77.30
2023-04-22T06:33:37.431Z,78.00
2023-04-22T06:36:05.182Z,78.00
2023-04-22T06:38:33.579Z,77.90
2023-04-22T06:41:21.700Z,78.10
2023-04-22T06:43:50.308Z,77.20
2023-04-22T06:46:36.281Z,74.70
2023-04-22T06:49:21.839Z,71.00
2023-04-22T06:51:55.429Z,67.00
2023-04-22T06:54:23.562Z,63.90
2023-04-22T06:56:51.645Z,59.70
2023-04-22T06:59:18.664Z,57.60
2023-04-22T07:01:47.018Z,55.10
2023-04-22T07:04:14.321Z,53.10
2023-04-22T07:06:41.431Z,51.30
2023-04-22T07:09:09.477Z,49.90
2023-04-22T07:11:37.883Z,48.80
2023-04-22T07:14:19.552Z,47.80
2023-04-22T07:16:46.815Z,46.90
2023-04-22T07:19:13.781Z,46.20
2023-04-22T07:21:40.694Z,46.20
2023-04-22T07:24:12.024Z,45.10
2023-04-22T07:26:40.310Z,44.20
2023-04-22T07:29:07.348Z,44.20
2023-04-22T07:31:35.651Z,43.30
2023-04-22T07:34:03.408Z,42.90
2023-04-22T07:36:32.018Z,43.40
2023-04-22T07:38:59.042Z,42.50
2023-04-22T07:41:26.166Z,42.30
2023-04-22T07:43:53.550Z,42.00
2023-04-22T07:46:21.089Z,41.50
2023-04-22T07:48:48.048Z,40.70
2023-04-22T07:51:14.996Z,40.20
2023-04-22T07:53:41.832Z,40.60
2023-04-22T07:56:08.870Z,40.80
2023-04-22T07:58:35.775Z,41.30
2023-04-22T08:01:02.736Z,41.10
2023-04-22T08:03:29.936Z,41.20
2023-04-22T08:05:58.327Z,40.40
2023-04-22T08:08:25.904Z,39.70
2023-04-22T08:10:52.845Z,39.20
2023-04-22T08:13:19.689Z,38.50
2023-04-22T08:15:46.609Z,38.00
2023-04-22T08:18:13.426Z,38.70
2023-04-22T08:20:40.426Z,39.20
2023-04-22T08:23:07.588Z,38.60
2023-04-22T08:25:34.604Z,37.90
2023-04-22T08:28:01.452Z,37.50
2023-04-22T08:30:28.308Z,37.20
2023-04-22T08:32:55.196Z,37.30
2023-04-22T08:35:22.024Z,37.10
2023-04-22T08:37:48.888Z,37.90
2023-04-22T08:40:15.849Z,38.60
2023-04-22T08:42:44.232Z,39.40
2023-04-22T08:45:11.078Z,40.00
2023-04-22T08:47:38.696Z,40.20
2023-04-22T08:50:06.422Z,39.80
2023-04-22T08:52:33.303Z,40.00
2023-04-22T08:55:00.227Z,40.40
2023-04-22T08:57:27.352Z,40.50
2023-04-22T08:59:55.650Z,41.00
2023-04-22T09:02:24.125Z,40.00
2023-04-22T09:04:52.403Z,40.70
2023-04-22T09:07:26.660Z,41.70
2023-04-22T09:09:56.965Z,41.70
2023-04-22T09:12:24.825Z,41.70
2023-04-22T09:14:52.115Z,41.10
2023-04-22T09:17:29.595Z,40.20
2023-04-22T09:20:00.282Z,39.70
2023-04-22T09:22:27.802Z,40.60
2023-04-22T09:24:54.758Z,40.10
2023-04-22T09:27:24.224Z,40.40
2023-04-22T09:29:51.564Z,39.80
2023-04-22T09:32:18.612Z,39.90
2023-04-22T09:34:52.379Z,40.60
2023-04-22T09:37:21.277Z,39.80
2023-04-22T09:39:49.744Z,40.50
2023-04-22T09:42:19.973Z,40.40
2023-04-22T09:44:48.048Z,40.40
2023-04-22T09:47:14.860Z,38.70
2023-04-22T09:49:45.736Z,38.70
2023-04-22T09:52:21.584Z,38.30
2023-04-22T09:54:54.699Z,38.40
2023-04-22T09:57:22.332Z,39.60
2023-04-22T09:59:53.090Z,40.30
2023-04-22T10:02:28.415Z,38.60
2023-04-22T10:04:55.347Z,36.90
2023-04-22T10:07:22.404Z,34.70
2023-04-22T10:09:49.397Z,35.20
2023-04-22T10:12:16.742Z,34.90
2023-04-22T10:14:50.103Z,34.60
2023-04-22T10:17:17.506Z,34.60
2023-04-22T10:19:46.559Z,34.30
2023-04-22T10:22:14.214Z,33.80
2023-04-22T10:24:42.096Z,33.90
2023-04-22T10:27:10.829Z,32.30
2023-04-22T10:29:39.227Z,32.70
2023-04-22T10:32:25.126Z,34.40
2023-04-22T10:35:06.874Z,35.30
2023-04-22T10:37:33.799Z,35.50
2023-04-22T10:40:11.203Z,35.70
2023-04-22T10:42:41.674Z,35.60
2023-04-22T10:45:13.166Z,35.70
2023-04-22T10:47:41.936Z,36.40
2023-04-22T10:50:09.891Z,36.50
2023-04-22T10:52:36.966Z,37.50
2023-04-22T10:55:04.031Z,38.20
2023-04-22T10:57:37.895Z,38.50
2023-04-22T11:00:23.624Z,38.80
2023-04-22T11:02:53.970Z,38.00
2023-04-22T11:05:24.568Z,37.80
2023-04-22T11:07:54.035Z,37.90
2023-04-22T11:10:34.120Z,38.10
2023-04-22T11:13:01.673Z,38.00
2023-04-22T11:15:29.629Z,38.50
2023-04-22T11:17:56.623Z,39.50
2023-04-22T11:20:23.612Z,38.80
2023-04-22T11:22:55.566Z,37.60
2023-04-22T11:25:24.520Z,38.20
2023-04-22T11:27:52.639Z,38.10
2023-04-22T11:30:23.056Z,37.30
2023-04-22T11:32:53.898Z,37.80
2023-04-22T11:35:20.756Z,37.50
2023-04-22T11:37:47.562Z,38.20
2023-04-22T11:40:29.057Z,37.80
2023-04-22T11:42:59.232Z,37.80
2023-04-22T11:45:26.522Z,37.30
2023-04-22T11:47:53.576Z,36.00
2023-04-22T11:50:27.399Z,36.10
2023-04-22T11:52:58.384Z,35.90
2023-04-22T11:55:27.662Z,35.90
2023-04-22T11:58:10.754Z,35.80
2023-04-22T12:00:47.452Z,36.30
2023-04-22T12:03:15.850Z,36.50
2023-04-22T12:05:44.063Z,35.60
2023-04-22T12:08:17.790Z,34.80
2023-04-22T12:10:45.763Z,33.90
2023-04-22T12:13:33.012Z,31.60
2023-04-22T12:16:04.698Z,33.10
2023-04-22T12:18:31.837Z,32.90
2023-04-22T12:21:08.136Z,32.80
2023-04-22T12:23:44.783Z,33.10
2023-04-22T12:26:12.155Z,33.50
2023-04-22T12:28:39.686Z,33.20
2023-04-22T12:31:06.881Z,33.80
2023-04-22T12:33:34.007Z,33.00
2023-04-22T12:36:01.048Z,33.60
2023-04-22T12:38:27.940Z,34.10
2023-04-22T12:40:54.976Z,34.20
2023-04-22T12:43:21.870Z,34.50
2023-04-22T12:45:48.803Z,32.80
2023-04-22T12:48:16.253Z,32.60
2023-04-22T12:50:43.185Z,32.80
2023-04-22T12:53:10.213Z,33.30
2023-04-22T12:55:37.036Z,33.80
2023-04-22T12:58:04.217Z,34.40
2023-04-22T13:00:31.176Z,34.70
2023-04-22T13:02:58.130Z,34.80
2023-04-22T13:05:25.289Z,34.70
2023-04-22T13:08:05.678Z,35.80
2023-04-22T13:10:33.736Z,35.80
2023-04-22T13:13:16.018Z,36.60
2023-04-22T13:15:45.643Z,37.00
2023-04-22T13:18:12.512Z,37.80
2023-04-22T13:20:40.819Z,37.70
2023-04-22T13:23:08.179Z,37.90
2023-04-22T13:25:35.054Z,38.40
2023-04-22T13:28:02.026Z,38.90
2023-04-22T13:30:28.871Z,38.70
2023-04-22T13:32:55.728Z,38.10
2023-04-22T13:35:22.656Z,38.00
2023-04-22T13:37:49.504Z,37.60
2023-04-22T13:40:16.656Z,38.10
2023-04-22T13:42:44.466Z,38.00
2023-04-22T13:45:11.374Z,38.30
2023-04-22T13:47:38.215Z,38.90
2023-04-22T13:50:06.382Z,39.40
2023-04-22T13:52:34.084Z,39.90
2023-04-22T13:55:02.390Z,39.90
2023-04-22T13:57:29.287Z,39.90
2023-04-22T13:59:56.101Z,40.00
2023-04-22T14:02:23.070Z,40.60
2023-04-22T14:04:49.876Z,41.00
2023-04-22T14:07:16.783Z,40.70
2023-04-22T14:09:43.805Z,41.00
2023-04-22T14:12:11.295Z,41.50
2023-04-22T14:14:38.317Z,42.00
2023-04-22T14:17:05.364Z,42.10
2023-04-22T14:19:32.284Z,42.50
2023-04-22T14:21:59.105Z,42.30
2023-04-22T14:24:26.832Z,42.40
2023-04-22T14:26:54.037Z,42.60
2023-04-22T14:29:21.134Z,42.40
2023-04-22T14:31:49.868Z,42.60
2023-04-22T14:34:17.209Z,42.60
2023-04-22T14:36:44.232Z,43.50
2023-04-22T14:39:11.070Z,43.90
2023-04-22T14:41:37.873Z,44.20
2023-04-22T14:44:04.696Z,44.00
2023-04-22T14:46:31.548Z,43.70
2023-04-22T14:48:58.524Z,43.60
2023-04-22T14:51:25.438Z,43.70
2023-04-22T14:53:52.263Z,43.80
2023-04-22T14:56:19.056Z,43.80
2023-04-22T14:58:46.523Z,44.00
2023-04-22T15:01:13.565Z,44.00
2023-04-22T15:03:40.806Z,44.10
2023-04-22T15:06:07.790Z,44.20
2023-04-22T15:08:34.576Z,44.10
2023-04-22T15:11:01.418Z,44.00
2023-04-22T15:13:28.254Z,44.00
2023-04-22T15:15:55.072Z,43.90
2023-04-22T15:18:21.948Z,43.80
2023-04-22T15:20:48.758Z,43.70
2023-04-22T15:23:15.978Z,44.10
2023-04-22T15:25:42.872Z,44.70
2023-04-22T15:28:09.761Z,44.80
2023-04-22T15:30:36.616Z,44.90
2023-04-22T15:33:05.003Z,45.20
2023-04-22T15:35:32.015Z,45.50
2023-04-22T15:37:58.888Z,45.90
2023-04-22T15:40:25.732Z,45.90
2023-04-22T15:42:52.562Z,45.90
2023-04-22T15:45:20.005Z,45.90
2023-04-22T15:47:46.951Z,45.90
2023-04-22T15:50:13.835Z,46.10
2023-04-22T15:52:40.951Z,45.90
2023-04-22T15:55:08.320Z,45.30
2023-04-22T15:57:35.592Z,45.20
2023-04-22T16:00:11.157Z,45.60
2023-04-22T16:02:42.981Z,45.80
2023-04-22T16:05:11.667Z,46.10
2023-04-22T16:07:38.822Z,46.00
2023-04-22T16:10:06.348Z,46.20
2023-04-22T16:12:34.428Z,46.30
2023-04-22T16:15:01.972Z,46.60
2023-04-22T16:17:29.015Z,47.10
2023-04-22T16:19:55.913Z,47.30
2023-04-22T16:22:22.797Z,47.40
2023-04-22T16:24:49.605Z,47.90
2023-04-22T16:27:18.100Z,48.30
2023-04-22T16:29:45.416Z,48.70
2023-04-22T16:32:12.232Z,49.20
2023-04-22T16:34:39.274Z,49.80
2023-04-22T16:37:06.536Z,50.30
2023-04-22T16:39:33.441Z,50.60
2023-04-22T16:42:00.286Z,51.00
2023-04-22T16:44:27.139Z,51.50
2023-04-22T16:46:54.031Z,52.00
2023-04-22T16:49:21.061Z,52.70
2023-04-22T16:51:48.465Z,53.10
2023-04-22T16:54:15.303Z,53.60
2023-04-22T16:56:42.110Z,54.20
2023-04-22T16:59:08.992Z,54.70
2023-04-22T17:01:36.258Z,55.20
2023-04-22T17:04:03.329Z,55.60
2023-04-22T17:06:31.236Z,55.80
2023-04-22T17:08:58.252Z,56.10
2023-04-22T17:11:25.378Z,56.30
2023-04-22T17:13:52.316Z,56.50
2023-04-22T17:16:19.369Z,56.70
2023-04-22T17:18:47.268Z,57.10
2023-04-22T17:21:14.228Z,57.40
2023-04-22T17:23:41.174Z,57.40
2023-04-22T17:26:08.214Z,57.50
2023-04-22T17:28:35.049Z,57.60
2023-04-22T17:31:02.479Z,57.90
2023-04-22T17:33:30.585Z,58.90
2023-04-22T17:35:57.533Z,59.80
2023-04-22T17:38:24.408Z,60.40
2023-04-22T17:40:51.227Z,60.80
2023-04-22T17:43:18.068Z,61.00
2023-04-22T17:45:45.217Z,61.60
2023-04-22T17:48:12.078Z,62.00
2023-04-22T17:50:39.011Z,62.50
2023-04-22T17:53:06.052Z,63.30
2023-04-22T17:55:35.278Z,63.40
2023-04-22T17:58:02.811Z,64.00
2023-04-22T18:00:29.948Z,64.70
2023-04-22T18:02:57.122Z,65.50
2023-04-22T18:05:24.379Z,66.10
2023-04-22T18:07:51.222Z,66.40
2023-04-22T18:10:18.117Z,66.90
2023-04-22T18:12:45.064Z,67.40
2023-04-22T18:15:11.978Z,67.90
2023-04-22T18:17:38.958Z,68.50
2023-04-22T18:20:17.412Z,69.00
2023-04-22T18:22:46.857Z,69.60
2023-04-22T18:25:14.181Z,69.90
2023-04-22T18:27:41.286Z,70.30
2023-04-22T18:30:08.332Z,70.70
2023-04-22T18:32:35.983Z,71.20
2023-04-22T18:35:03.070Z,71.60
2023-04-22T18:37:30.922Z,71.70
2023-04-22T18:39:57.796Z,71.70
2023-04-22T18:42:24.687Z,71.80
2023-04-22T18:44:51.597Z,71.90
2023-04-22T18:47:18.503Z,71.80
2023-04-22T18:49:45.640Z,71.90
2023-04-22T18:52:12.634Z,71.80
2023-04-22T18:54:39.858Z,71.60
2023-04-22T18:57:06.975Z,71.50
2023-04-22T18:59:34.005Z,71.40
2023-04-22T19:02:01.086Z,71.30
2023-04-22T19:04:28.105Z,71.20
2023-04-22T19:06:57.117Z,71.00
2023-04-22T19:09:24.319Z,71.00
2023-04-22T19:11:51.308Z,70.80
2023-04-22T19:14:18.800Z,70.70
2023-04-22T19:16:45.931Z,70.50
2023-04-22T19:19:12.892Z,70.30
2023-04-22T19:21:40.481Z,70.10
2023-04-22T19:24:07.814Z,70.10
2023-04-22T19:26:34.777Z,69.90
2023-04-22T19:29:01.999Z,69.70
2023-04-22T19:31:29.132Z,69.70
2023-04-22T19:33:56.196Z,69.60
2023-04-22T19:36:23.416Z,69.60
2023-04-22T19:38:50.355Z,69.60
2023-04-22T19:41:17.459Z,69.70
2023-04-22T19:43:44.556Z,69.80
2023-04-22T19:46:11.814Z,70.00
2023-04-22T19:48:39.008Z,69.90
2023-04-22T19:51:06.787Z,69.80
2023-04-22T19:53:34.980Z,69.70
2023-04-22T19:56:03.089Z,69.70
2023-04-22T19:58:31.634Z,69.80
2023-04-22T20:00:58.749Z,69.90
2023-04-22T20:03:26.541Z,70.00
2023-04-22T20:05:54.607Z,70.20
2023-04-22T20:08:26.907Z,70.40
2023-04-22T20:10:55.293Z,70.60
2023-04-22T20:13:22.684Z,70.80
2023-04-22T20:15:50.263Z,71.10
2023-04-22T20:18:17.744Z,71.50
2023-04-22T20:20:48.305Z,71.60
2023-04-22T20:23:16.990Z,71.90
2023-04-22T20:25:44.735Z,72.00
2023-04-22T20:28:11.985Z,72.10
2023-04-22T20:30:39.822Z,72.20
2023-04-22T20:33:07.052Z,72.40
2023-04-22T20:35:35.985Z,72.60
2023-04-22T20:38:03.733Z,72.80
2023-04-22T20:40:30.910Z,73.10
2023-04-22T20:43:01.036Z,73.40
2023-04-22T20:45:28.620Z,73.60
2023-04-22T20:47:58.078Z,73.70
2023-04-22T20:50:25.669Z,74.00
2023-04-22T20:52:53.261Z,74.40
2023-04-22T20:55:20.227Z,74.60
2023-04-22T20:57:47.148Z,74.90
2023-04-22T21:00:14.770Z,75.20
2023-04-22T21:02:42.556Z,75.50
2023-04-22T21:05:11.344Z,75.70
2023-04-22T21:07:42.156Z,75.90
2023-04-22T21:10:09.824Z,76.20
2023-04-22T21:12:38.194Z,76.30
2023-04-22T21:15:06.176Z,76.40
2023-04-22T21:17:35.337Z,76.50
2023-04-22T21:20:05.393Z,76.70
2023-04-22T21:22:32.748Z,76.80
2023-04-22T21:25:00.727Z,77.10
2023-04-22T21:27:27.892Z,77.20
2023-04-22T21:29:55.370Z,77.40
2023-04-22T21:32:22.288Z,77.60
2023-04-22T21:34:49.278Z,77.80
2023-04-22T21:37:16.227Z,77.90
2023-04-22T21:39:43.247Z,78.00
2023-04-22T21:42:10.541Z,78.20
2023-04-22T21:44:38.208Z,78.30
2023-04-22T21:47:05.855Z,78.60
2023-04-22T21:49:33.033Z,78.80
2023-04-22T21:52:00.017Z,79.20
2023-04-22T21:54:27.096Z,79.40
2023-04-22T21:56:54.065Z,79.50
2023-04-22T21:59:21.025Z,79.70
2023-04-22T22:01:48.033Z,80.10
2023-04-22T22:04:16.227Z,80.40
2023-04-22T22:06:44.950Z,80.80
2023-04-22T22:09:12.434Z,81.20
2023-04-22T22:11:39.460Z,81.50
2023-04-22T22:14:06.384Z,81.70
2023-04-22T22:16:33.539Z,82.10
2023-04-22T22:19:02.755Z,82.10
2023-04-22T22:21:29.943Z,82.30
2023-04-22T22:23:57.835Z,82.60
2023-04-22T22:26:24.922Z,82.70
2023-04-22T22:28:51.904Z,82.80
2023-04-22T22:31:19.027Z,82.90
2023-04-22T22:33:46.075Z,82.90
2023-04-22T22:36:13.032Z,83.00
2023-04-22T22:38:39.959Z,83.00
2023-04-22T22:41:06.912Z,83.20
2023-04-22T22:43:33.817Z,83.40
2023-04-22T22:46:00.891Z,83.50
2023-04-22T22:48:27.976Z,83.80
2023-04-22T22:50:56.645Z,83.90
2023-04-22T22:53:23.617Z,84.00
2023-04-22T22:55:50.700Z,84.10
2023-04-22T22:58:17.664Z,84.10
2023-04-22T23:00:44.605Z,84.10
2023-04-22T23:03:12.998Z,84.10
2023-04-22T23:05:40.041Z,84.30
2023-04-22T23:08:07.174Z,84.30
2023-04-22T23:10:34.091Z,84.50
2023-04-22T23:13:01.157Z,84.70
2023-04-22T23:15:28.298Z,84.80
2023-04-22T23:17:55.222Z,84.90
2023-04-22T23:20:23.675Z,85.10
2023-04-22T23:22:51.952Z,85.20
2023-04-22T23:25:19.567Z,85.20
2023-04-22T23:27:46.643Z,85.40
2023-04-22T23:30:14.008Z,85.40
2023-04-22T23:32:42.668Z,85.50
2023-04-22T23:35:12.735Z,85.60
2023-04-22T23:37:46.392Z,85.70
2023-04-22T23:40:13.803Z,85.90
2023-04-22T23:42:40.770Z,85.80
2023-04-22T23:45:08.456Z,85.90
2023-04-22T23:47:35.538Z,86.10
2023-04-22T23:50:03.458Z,86.10
2023-04-22T23:52:30.466Z,86.20
2023-04-22T23:54:57.752Z,86.20
2023-04-22T23:57:25.005Z,86.30
2023-04-22T23:59:52.186Z,86.50
